createdAt,value
2018-03-07T00:00:00.172Z,4.34
2018-03-07T00:00:04.188Z,4.34
2018-03-07T00:00:08.096Z,4.35
2018-03-07T00:00:12.419Z,4.35
2018-03-07T00:00:16.536Z,4.35
2018-03-07T00:00:20.438Z,4.34
2018-03-07T00:00:24.334Z,4.35
2018-03-07T00:00:28.442Z,4.34
2018-03-07T00:00:32.449Z,4.34
2018-03-07T00:00:36.351Z,4.34
2018-03-07T00:00:40.363Z,4.34
2018-03-07T00:00:44.371Z,4.33
2018-03-07T00:00:48.705Z,4.34
2018-03-07T00:00:52.923Z,4.32
2018-03-07T00:00:57.055Z,4.34
2018-03-07T00:01:01.169Z,4.33
2018-03-07T00:01:05.397Z,4.33
2018-03-07T00:01:09.508Z,4.33
2018-03-07T00:01:13.839Z,4.33
2018-03-07T00:01:17.949Z,4.32
2018-03-07T00:01:22.171Z,4.32
2018-03-07T00:01:26.295Z,4.33
2018-03-07T00:01:30.321Z,4.33
2018-03-07T00:01:34.438Z,4.33
2018-03-07T00:01:38.572Z,4.33
2018-03-07T00:01:42.586Z,4.33
2018-03-07T00:01:46.695Z,4.33
2018-03-07T00:01:50.920Z,4.33
2018-03-07T00:01:55.144Z,4.32
2018-03-07T00:01:59.149Z,4.33
2018-03-07T00:02:03.267Z,4.32
2018-03-07T00:02:07.052Z,4.32
2018-03-07T00:02:11.271Z,4.31
2018-03-07T00:02:15.604Z,4.33
2018-03-07T00:02:19.607Z,4.31
2018-03-07T00:02:23.722Z,4.31
2018-03-07T00:02:27.835Z,4.32
2018-03-07T00:02:31.955Z,4.31
2018-03-07T00:02:36.295Z,4.32
2018-03-07T00:02:40.404Z,4.32
2018-03-07T00:02:44.528Z,4.31
2018-03-07T00:02:48.539Z,4.31
2018-03-07T00:02:52.541Z,4.32
2018-03-07T00:02:56.664Z,4.31
2018-03-07T00:03:00.783Z,4.32
2018-03-07T00:03:04.900Z,4.31
2018-03-07T00:03:09.022Z,4.32
2018-03-07T00:03:13.140Z,4.32
2018-03-07T00:03:17.364Z,4.32
2018-03-07T00:03:21.157Z,4.31
2018-03-07T00:03:25.162Z,4.3
2018-03-07T00:03:29.382Z,4.31
2018-03-07T00:03:33.713Z,4.31
2018-03-07T00:03:37.833Z,4.3
2018-03-07T00:03:41.947Z,4.31
2018-03-07T00:03:45.859Z,4.32
2018-03-07T00:03:50.090Z,4.32
2018-03-07T00:03:54.202Z,4.32
2018-03-07T00:03:58.208Z,4.32
2018-03-07T00:04:01.997Z,4.32
2018-03-07T00:04:06.009Z,4.32
2018-03-07T00:04:09.907Z,4.32
2018-03-07T00:04:14.028Z,4.32
2018-03-07T00:04:18.249Z,4.32
2018-03-07T00:04:22.468Z,4.32
2018-03-07T00:04:26.518Z,4.32
2018-03-07T00:04:30.766Z,4.31
2018-03-07T00:04:34.877Z,4.31
2018-03-07T00:04:38.887Z,4.29
2018-03-07T00:04:42.999Z,4.32
2018-03-07T00:04:47.112Z,4.3
2018-03-07T00:04:51.229Z,4.3
2018-03-07T00:04:55.459Z,4.31
2018-03-07T00:04:59.576Z,4.29
2018-03-07T00:05:03.844Z,4.3
2018-03-07T00:05:08.104Z,4.29
2018-03-07T00:05:12.453Z,4.3
2018-03-07T00:05:16.563Z,4.3
2018-03-07T00:05:20.670Z,4.3
2018-03-07T00:05:24.782Z,4.31
2018-03-07T00:05:28.904Z,4.29
2018-03-07T00:05:33.142Z,4.28
2018-03-07T00:05:37.164Z,4.29
2018-03-07T00:05:41.178Z,4.29
2018-03-07T00:05:45.080Z,4.3
2018-03-07T00:05:49.195Z,4.29
2018-03-07T00:05:53.314Z,4.29
2018-03-07T00:05:57.208Z,4.28
2018-03-07T00:06:01.318Z,4.29
2018-03-07T00:06:05.546Z,4.29
2018-03-07T00:06:09.553Z,4.29
2018-03-07T00:06:13.680Z,4.28
2018-03-07T00:06:17.902Z,4.29
2018-03-07T00:06:22.120Z,4.28
2018-03-07T00:06:26.127Z,4.28
2018-03-07T00:06:30.246Z,4.28
2018-03-07T00:06:34.361Z,4.28
2018-03-07T00:06:38.374Z,4.28
2018-03-07T00:06:42.490Z,4.28
2018-03-07T00:06:46.493Z,4.27
2018-03-07T00:06:50.616Z,4.27
2018-03-07T00:06:54.942Z,4.28
2018-03-07T00:06:59.055Z,4.27
2018-03-07T00:07:03.171Z,4.28
2018-03-07T00:07:07.389Z,4.27
2018-03-07T00:07:11.610Z,4.28
2018-03-07T00:07:15.720Z,4.26
2018-03-07T00:07:19.941Z,4.26
2018-03-07T00:07:24.063Z,4.26
2018-03-07T00:07:28.180Z,4.26
2018-03-07T00:07:32.186Z,4.27
2018-03-07T00:07:36.313Z,4.27
2018-03-07T03:00:16.247Z,3.72
2018-03-07T03:00:20.388Z,3.72
2018-03-07T03:00:24.403Z,3.73
2018-03-07T03:00:28.347Z,3.72
2018-03-07T03:00:32.573Z,3.73
2018-03-07T03:00:36.797Z,3.73
2018-03-07T03:00:40.926Z,3.72
2018-03-07T03:00:45.151Z,3.73
2018-03-07T03:00:49.281Z,3.72
2018-03-07T03:00:53.284Z,3.72
2018-03-07T03:00:57.431Z,3.72
2018-03-07T03:01:01.668Z,3.73
2018-03-07T03:01:06.001Z,3.73
2018-03-07T03:01:09.791Z,3.74
2018-03-07T03:01:14.033Z,3.73
2018-03-07T03:01:18.259Z,3.73
2018-03-07T03:01:22.391Z,3.73
2018-03-07T03:01:26.412Z,3.72
2018-03-07T03:01:30.551Z,3.73
2018-03-07T03:01:34.684Z,3.73
2018-03-07T03:01:39.027Z,3.73
2018-03-07T03:01:43.147Z,3.73
2018-03-07T03:01:47.232Z,3.73
2018-03-07T03:01:51.345Z,3.72
2018-03-07T03:01:55.581Z,3.74
2018-03-07T03:01:59.836Z,3.73
2018-03-07T03:02:03.846Z,3.73
2018-03-07T03:02:08.078Z,3.73
2018-03-07T03:02:12.315Z,3.72
2018-03-07T03:02:16.442Z,3.73
2018-03-07T03:02:20.791Z,3.73
2018-03-07T03:02:25.150Z,3.73
2018-03-07T03:02:29.272Z,3.73
2018-03-07T03:02:33.397Z,3.74
2018-03-07T03:02:37.528Z,3.74
2018-03-07T03:02:41.763Z,3.73
2018-03-07T03:02:45.772Z,3.73
2018-03-07T03:02:50.006Z,3.74
2018-03-07T03:02:54.193Z,3.73
2018-03-07T03:02:58.318Z,3.73
2018-03-07T03:03:02.466Z,3.74
2018-03-07T03:03:06.477Z,3.73
2018-03-07T03:03:10.705Z,3.73
2018-03-07T03:03:14.716Z,3.73
2018-03-07T03:03:19.094Z,3.73
2018-03-07T03:03:23.318Z,3.74
2018-03-07T03:03:27.557Z,3.73
2018-03-07T03:03:31.467Z,3.74
2018-03-07T03:03:35.482Z,3.74
2018-03-07T03:03:39.484Z,3.74
2018-03-07T03:03:43.710Z,3.74
2018-03-07T03:03:47.727Z,3.73
2018-03-07T03:03:51.959Z,3.74
2018-03-07T03:03:55.981Z,3.75
2018-03-07T03:04:00.313Z,3.73
2018-03-07T03:04:04.545Z,3.74
2018-03-07T03:04:08.662Z,3.75
2018-03-07T03:04:13.018Z,3.74
2018-03-07T03:04:17.263Z,3.75
2018-03-07T03:04:21.492Z,3.74
2018-03-07T03:04:25.506Z,3.75
2018-03-07T03:04:29.736Z,3.75
2018-03-07T03:04:33.864Z,3.75
2018-03-07T03:04:38.019Z,3.74
2018-03-07T03:04:42.265Z,3.75
2018-03-07T03:04:46.630Z,3.75
2018-03-07T03:04:50.860Z,3.74
2018-03-07T03:04:55.092Z,3.74
2018-03-07T03:04:59.449Z,3.75
2018-03-07T03:05:03.828Z,3.75
2018-03-07T03:05:07.731Z,3.75
2018-03-07T03:05:11.962Z,3.75
2018-03-07T03:05:16.205Z,3.74
2018-03-07T03:05:20.329Z,3.76
2018-03-07T03:05:24.444Z,3.75
2018-03-07T03:05:28.695Z,3.75
2018-03-07T03:05:32.823Z,3.75
2018-03-07T03:05:36.950Z,3.75
2018-03-07T03:05:41.286Z,3.75
2018-03-07T03:05:45.294Z,3.76
2018-03-07T03:05:49.411Z,3.76
2018-03-07T03:05:53.660Z,3.77
2018-03-07T03:05:58.004Z,3.77
2018-03-07T03:06:02.341Z,3.76
2018-03-07T03:06:06.466Z,3.76
2018-03-07T03:06:10.813Z,3.76
2018-03-07T03:06:15.042Z,3.77
2018-03-07T03:06:19.386Z,3.77
2018-03-07T03:06:23.670Z,3.76
2018-03-07T03:06:28.011Z,3.76
2018-03-07T03:06:32.156Z,3.77
2018-03-07T03:06:36.068Z,3.77
2018-03-07T03:06:40.194Z,3.76
2018-03-07T03:06:44.429Z,3.77
2018-03-07T03:06:48.791Z,3.77
2018-03-07T03:06:53.027Z,3.76
2018-03-07T03:06:57.369Z,3.77
2018-03-07T03:07:01.384Z,3.77
2018-03-07T03:07:05.738Z,3.78
2018-03-07T03:07:10.078Z,3.77
2018-03-07T03:07:14.202Z,3.76
2018-03-07T03:07:18.547Z,3.77
2018-03-07T03:07:22.890Z,3.77
2018-03-07T03:07:26.792Z,3.77
2018-03-07T03:07:31.010Z,3.76
2018-03-07T03:07:35.130Z,3.78
2018-03-07T03:07:39.258Z,3.77
2018-03-07T03:07:43.662Z,3.77
2018-03-07T03:07:47.785Z,3.78
2018-03-07T03:07:52.025Z,3.77
2018-03-07T03:07:55.926Z,3.77
2018-03-07T03:08:00.260Z,3.77
2018-03-07T03:08:04.688Z,3.78
2018-03-07T03:08:08.919Z,3.78
2018-03-07T03:08:13.041Z,3.78
2018-03-07T03:08:17.052Z,3.79
2018-03-07T03:08:21.059Z,3.78
2018-03-07T03:08:25.178Z,3.79
2018-03-07T03:08:29.504Z,3.79
2018-03-07T03:08:33.729Z,3.79
2018-03-07T03:08:37.947Z,3.79
2018-03-07T03:08:42.067Z,3.79
2018-03-07T03:08:46.298Z,3.79
2018-03-07T03:08:50.309Z,3.79
2018-03-07T03:08:54.433Z,3.8
2018-03-07T03:08:58.658Z,3.79
2018-03-07T03:09:02.795Z,3.79
2018-03-07T03:09:07.025Z,3.8
2018-03-07T03:09:11.141Z,3.8
2018-03-07T03:09:15.046Z,3.79
2018-03-07T03:09:19.054Z,3.81
2018-03-07T03:09:23.169Z,3.8
2018-03-07T03:09:27.069Z,3.8
2018-03-07T03:09:31.196Z,3.81
2018-03-07T03:09:34.994Z,3.8
2018-03-07T03:09:38.790Z,3.8
2018-03-07T03:09:43.031Z,3.81
2018-03-07T03:09:46.928Z,3.81
2018-03-07T03:09:51.064Z,3.82
2018-03-07T03:09:55.287Z,3.82
2018-03-07T03:09:59.512Z,3.81
2018-03-07T03:10:03.635Z,3.82
2018-03-07T03:10:07.646Z,3.81
2018-03-07T03:10:11.765Z,3.81
2018-03-07T03:10:15.878Z,3.81
2018-03-07T03:10:19.896Z,3.82
2018-03-07T03:10:23.902Z,3.82
2018-03-07T03:10:27.804Z,3.83
2018-03-07T03:10:31.926Z,3.83
2018-03-07T03:10:35.935Z,3.83
2018-03-07T03:10:40.052Z,3.83
2018-03-07T03:10:44.162Z,3.83
2018-03-07T03:10:48.279Z,3.83
2018-03-07T03:10:52.398Z,3.82
2018-03-07T03:10:56.515Z,3.82
2018-03-07T03:11:00.732Z,3.83
2018-03-07T03:11:04.932Z,3.82
2018-03-07T03:11:08.951Z,3.83
2018-03-07T03:11:13.172Z,3.82
2018-03-07T03:11:17.082Z,3.83
2018-03-07T03:11:21.193Z,3.83
2018-03-07T03:11:25.320Z,3.82
2018-03-07T03:11:29.368Z,3.83
2018-03-07T03:11:34.072Z,3.84
2018-03-07T03:11:38.334Z,3.83
2018-03-07T03:11:42.342Z,3.83
2018-03-07T03:11:46.572Z,3.82
2018-03-07T03:11:50.899Z,3.83
2018-03-07T03:11:55.120Z,3.83
2018-03-07T03:11:59.127Z,3.83
2018-03-07T03:12:03.512Z,3.84
2018-03-07T03:12:07.526Z,3.83
2018-03-07T03:12:11.631Z,3.84
2018-03-07T03:12:15.747Z,3.84
2018-03-07T03:12:19.757Z,3.84
2018-03-07T03:12:23.993Z,3.85
2018-03-07T03:12:28.212Z,3.84
2018-03-07T03:12:32.118Z,3.84
2018-03-07T03:12:36.234Z,3.84
2018-03-07T03:12:40.235Z,3.84
2018-03-07T03:12:44.347Z,3.85
2018-03-07T03:12:48.480Z,3.84
2018-03-07T03:12:52.694Z,3.84
2018-03-07T03:12:56.704Z,3.85
2018-03-07T03:13:00.870Z,3.85
2018-03-07T03:13:05.293Z,3.85
2018-03-07T03:13:09.416Z,3.84
2018-03-07T03:13:13.420Z,3.85
2018-03-07T03:13:17.428Z,3.85
2018-03-07T03:13:21.657Z,3.85
2018-03-07T03:13:25.667Z,3.85
2018-03-07T03:13:29.671Z,3.85
2018-03-07T03:13:33.789Z,3.86
2018-03-07T03:13:37.689Z,3.85
2018-03-07T03:13:41.908Z,3.85
2018-03-07T03:13:46.146Z,3.85
2018-03-07T03:13:49.941Z,3.86
2018-03-07T03:13:54.163Z,3.85
2018-03-07T03:13:58.282Z,3.85
2018-03-07T03:14:02.510Z,3.86
2018-03-07T03:14:06.626Z,3.85
2018-03-07T03:14:10.857Z,3.86
2018-03-07T03:14:14.970Z,3.86
2018-03-07T03:14:19.190Z,3.86
2018-03-07T03:14:23.098Z,3.87
2018-03-07T03:14:27.330Z,3.86
2018-03-07T03:14:31.232Z,3.87
2018-03-07T03:14:35.460Z,3.86
2018-03-07T03:14:39.590Z,3.86
2018-03-07T03:14:43.704Z,3.87
2018-03-07T03:14:47.828Z,3.87
2018-03-07T03:14:51.628Z,3.87
2018-03-07T03:14:55.961Z,3.87
2018-03-07T03:14:59.969Z,3.87
2018-03-07T03:15:04.136Z,3.86
2018-03-07T03:15:08.251Z,3.87
2018-03-07T03:15:12.475Z,3.87
2018-03-07T03:15:16.372Z,3.88
2018-03-07T03:15:20.486Z,3.87
2018-03-07T03:15:24.386Z,3.88
2018-03-07T03:15:28.504Z,3.87
2018-03-07T03:15:32.735Z,3.87
2018-03-07T03:15:36.753Z,3.88
2018-03-07T03:15:40.868Z,3.88
2018-03-07T03:15:44.985Z,3.88
2018-03-07T03:15:49.248Z,3.88
2018-03-07T03:15:53.617Z,3.88
2018-03-07T03:15:57.738Z,3.89
2018-03-07T03:16:01.541Z,3.89
2018-03-07T03:16:05.551Z,3.89
2018-03-07T03:16:09.891Z,3.89
2018-03-07T03:16:14.016Z,3.89
2018-03-07T03:16:18.242Z,3.9
2018-03-07T03:16:22.471Z,3.89
2018-03-07T03:16:26.476Z,3.9
2018-03-07T03:16:30.714Z,3.9
2018-03-07T03:16:34.829Z,3.9
2018-03-07T03:16:38.848Z,3.9
2018-03-07T03:16:42.978Z,3.9
2018-03-07T03:16:47.089Z,3.9
2018-03-07T03:16:51.316Z,3.91
2018-03-07T03:16:55.110Z,3.9
2018-03-07T03:16:59.332Z,3.9
2018-03-07T03:17:03.689Z,3.9
2018-03-07T03:17:07.701Z,3.91
2018-03-07T03:17:11.820Z,3.91
2018-03-07T03:17:15.947Z,3.91
2018-03-07T03:17:20.281Z,3.91
2018-03-07T03:17:24.399Z,3.91
2018-03-07T03:17:28.630Z,3.9
2018-03-07T03:17:32.854Z,3.91
2018-03-07T03:17:36.966Z,3.93
2018-03-07T03:17:41.196Z,3.93
2018-03-07T03:17:45.199Z,3.93
2018-03-07T03:17:49.200Z,3.93
2018-03-07T03:17:52.996Z,3.93
2018-03-07T03:17:57.213Z,3.92
2018-03-07T03:18:01.345Z,3.94
2018-03-07T03:18:05.464Z,3.93
2018-03-07T03:18:09.686Z,3.93
2018-03-07T03:18:13.695Z,3.93
2018-03-07T03:18:17.909Z,3.94
2018-03-07T03:18:22.032Z,3.94
2018-03-07T03:18:26.144Z,3.93
2018-03-07T03:18:30.150Z,3.94
2018-03-07T03:18:34.274Z,3.95
2018-03-07T03:18:38.389Z,3.94
2018-03-07T03:18:42.606Z,3.94
2018-03-07T03:18:46.834Z,3.94
2018-03-07T03:18:50.849Z,3.95
2018-03-07T03:18:54.995Z,3.94
2018-03-07T03:18:59.319Z,3.95
2018-03-07T03:19:03.331Z,3.96
2018-03-07T03:19:07.230Z,3.95
2018-03-07T03:19:11.448Z,3.96
2018-03-07T03:19:15.676Z,3.96
2018-03-07T03:19:19.687Z,3.96
2018-03-07T03:19:23.809Z,3.96
2018-03-07T03:19:27.929Z,3.96
2018-03-07T03:19:31.934Z,3.96
2018-03-07T03:19:36.158Z,3.96
2018-03-07T03:19:40.167Z,3.96
2018-03-07T03:19:44.067Z,3.95
2018-03-07T03:19:48.073Z,3.96
2018-03-07T03:19:52.394Z,3.96
2018-03-07T03:19:56.620Z,3.97
2018-03-07T03:20:00.735Z,3.97
2018-03-07T03:20:04.856Z,3.97
2018-03-07T03:20:09.083Z,3.97
2018-03-07T03:20:13.309Z,3.98
2018-03-07T03:20:17.642Z,3.97
2018-03-07T03:20:21.651Z,3.97
2018-03-07T03:20:25.766Z,3.98
2018-03-07T03:20:29.888Z,3.97
2018-03-07T03:20:34.022Z,3.98
2018-03-07T03:20:38.135Z,3.98
2018-03-07T03:20:42.041Z,3.97
2018-03-07T03:20:45.945Z,3.98
2018-03-07T03:20:50.071Z,3.98
2018-03-07T03:20:54.186Z,3.99
2018-03-07T03:20:58.306Z,3.98
2018-03-07T03:21:02.463Z,3.99
2018-03-07T03:21:06.576Z,3.98
2018-03-07T03:21:10.691Z,3.98
2018-03-07T03:21:14.910Z,4
2018-03-07T03:21:18.808Z,3.99
2018-03-07T03:21:23.024Z,3.99
2018-03-07T03:21:27.032Z,3.99
2018-03-07T03:21:31.258Z,3.99
2018-03-07T03:21:35.372Z,3.99
2018-03-07T03:21:39.384Z,4
2018-03-07T03:21:43.281Z,3.99
2018-03-07T03:21:47.186Z,4
2018-03-07T03:21:51.195Z,4
2018-03-07T03:21:55.411Z,4
2018-03-07T03:21:59.630Z,4
2018-03-07T03:22:03.534Z,4
2018-03-07T03:22:07.646Z,4
2018-03-07T03:22:11.768Z,4
2018-03-07T03:22:16.106Z,4
2018-03-07T03:22:20.220Z,4
2018-03-07T03:22:24.334Z,4
2018-03-07T03:22:28.449Z,4.01
2018-03-07T03:22:32.460Z,4.01
2018-03-07T03:22:36.462Z,4.01
2018-03-07T03:22:40.360Z,4.01
2018-03-07T03:22:44.367Z,4.03
2018-03-07T03:22:48.377Z,4.01
2018-03-07T03:22:52.271Z,4.02
2018-03-07T03:22:56.283Z,4.02
2018-03-07T03:23:00.297Z,4.03
2018-03-07T03:23:04.503Z,4.03
2018-03-07T03:23:08.728Z,4.03
2018-03-07T03:23:12.961Z,4.02
2018-03-07T03:23:17.085Z,4.03
2018-03-07T03:23:21.201Z,4.02
2018-03-07T03:23:25.322Z,4.03
2018-03-07T03:23:29.223Z,4.03
2018-03-07T03:23:33.358Z,4.03
2018-03-07T03:23:37.369Z,4.04
2018-03-07T03:23:41.377Z,4.03
2018-03-07T03:23:45.494Z,4.04
2018-03-07T03:23:49.607Z,4.03
2018-03-07T03:23:53.747Z,4.04
2018-03-07T03:23:57.862Z,4.04
2018-03-07T03:24:01.985Z,4.04
2018-03-07T03:24:06.096Z,4.03
2018-03-07T03:24:10.212Z,4.04
2018-03-07T03:24:14.431Z,4.05
2018-03-07T03:24:18.541Z,4.03
2018-03-07T03:24:22.768Z,4.05
2018-03-07T03:24:26.667Z,4.05
2018-03-07T03:24:30.679Z,4.03
2018-03-07T03:24:34.799Z,4.05
2018-03-07T03:24:38.920Z,4.05
2018-03-07T03:24:42.826Z,4.05
2018-03-07T03:24:46.934Z,4.05
2018-03-07T03:24:51.151Z,4.05
2018-03-07T03:24:55.285Z,4.04
2018-03-07T03:24:59.296Z,4.05
2018-03-07T03:25:03.418Z,4.06
2018-03-07T03:25:07.540Z,4.05
2018-03-07T03:25:11.661Z,4.05
2018-03-07T03:25:15.887Z,4.06
2018-03-07T03:25:20.002Z,4.05
2018-03-07T03:25:24.124Z,4.06
2018-03-07T03:25:28.133Z,4.06
2018-03-07T03:25:32.153Z,4.06
2018-03-07T03:25:36.277Z,4.07
2018-03-07T03:25:40.499Z,4.07
2018-03-07T03:25:44.720Z,4.06
2018-03-07T03:25:48.841Z,4.06
2018-03-07T03:25:52.857Z,4.06
2018-03-07T03:25:56.873Z,4.06
2018-03-07T03:26:01.100Z,4.06
2018-03-07T03:26:05.630Z,4.07
2018-03-07T03:26:09.849Z,4.07
2018-03-07T03:26:13.964Z,4.06
2018-03-07T03:26:17.977Z,4.07
2018-03-07T03:26:22.092Z,4.07
2018-03-07T03:26:26.311Z,4.07
2018-03-07T03:26:30.535Z,4.07
2018-03-07T03:26:34.541Z,4.08
2018-03-07T03:26:38.541Z,4.08
2018-03-07T03:26:42.545Z,4.08
2018-03-07T03:26:46.493Z,4.08
2018-03-07T03:26:50.624Z,4.08
2018-03-07T03:26:54.741Z,4.08
2018-03-07T03:26:58.959Z,4.09
2018-03-07T03:27:03.219Z,4.08
2018-03-07T03:27:07.630Z,4.08
2018-03-07T03:27:11.804Z,4.09
2018-03-07T03:27:16.030Z,4.09
2018-03-07T03:27:20.254Z,4.09
2018-03-07T03:27:24.364Z,4.09
2018-03-07T03:27:28.267Z,4.1
2018-03-07T03:27:32.497Z,4.09
2018-03-07T03:27:36.620Z,4.09
2018-03-07T03:27:40.832Z,4.11
2018-03-07T03:27:45.053Z,4.11
2018-03-07T03:27:49.172Z,4.1
2018-03-07T03:27:53.303Z,4.1
2018-03-07T03:27:57.202Z,4.1
2018-03-07T03:28:01.319Z,4.11
2018-03-07T03:28:05.440Z,4.11
2018-03-07T03:28:09.559Z,4.1
2018-03-07T03:28:13.676Z,4.11
2018-03-07T03:28:18.014Z,4.1
2018-03-07T03:28:22.131Z,4.11
2018-03-07T03:28:26.039Z,4.1
2018-03-07T03:28:30.368Z,4.11
2018-03-07T03:28:34.488Z,4.11
2018-03-07T03:28:38.494Z,4.11
2018-03-07T03:28:42.709Z,4.11
2018-03-07T03:28:46.726Z,4.11
2018-03-07T03:28:50.733Z,4.11
2018-03-07T03:28:54.984Z,4.11
2018-03-07T03:28:59.095Z,4.12
2018-03-07T03:29:02.993Z,4.12
2018-03-07T03:29:07.218Z,4.12
2018-03-07T03:29:11.225Z,4.11
2018-03-07T03:29:15.449Z,4.12
2018-03-07T03:29:19.563Z,4.12
2018-03-07T03:29:23.690Z,4.12
2018-03-07T03:29:27.708Z,4.12
2018-03-07T03:29:31.826Z,4.13
2018-03-07T03:29:35.834Z,4.12
2018-03-07T03:29:39.732Z,4.13
2018-03-07T03:29:43.637Z,4.13
2018-03-07T03:29:47.540Z,4.13
2018-03-07T03:29:51.548Z,4.13
2018-03-07T03:29:55.659Z,4.14
2018-03-07T03:29:59.782Z,4.14
2018-03-07T03:30:03.801Z,4.14
2018-03-07T03:30:07.938Z,4.14
2018-03-07T03:30:12.312Z,4.14
2018-03-07T03:30:16.550Z,4.14
2018-03-07T03:30:20.837Z,4.14
2018-03-07T03:30:24.968Z,4.14
2018-03-07T03:30:29.312Z,4.14
2018-03-07T03:30:33.661Z,4.14
2018-03-07T03:30:38.014Z,4.14
2018-03-07T03:30:42.258Z,4.14
2018-03-07T03:30:46.488Z,4.14
2018-03-07T03:30:50.733Z,4.15
2018-03-07T03:30:54.988Z,4.14
2018-03-07T03:30:59.223Z,4.15
2018-03-07T03:31:03.403Z,4.15
2018-03-07T03:31:07.539Z,4.15
2018-03-07T03:31:11.775Z,4.16
2018-03-07T03:31:15.907Z,4.14
2018-03-07T03:31:20.190Z,4.16
2018-03-07T03:31:24.335Z,4.15
2018-03-07T03:31:28.562Z,4.15
2018-03-07T03:31:32.698Z,4.15
2018-03-07T03:31:37.055Z,4.15
2018-03-07T03:31:40.965Z,4.15
2018-03-07T03:31:45.208Z,4.16
2018-03-07T03:31:49.221Z,4.16
2018-03-07T03:31:53.119Z,4.15
2018-03-07T03:31:57.243Z,4.16
2018-03-07T03:32:01.579Z,4.17
2018-03-07T03:32:05.716Z,4.17
2018-03-07T03:32:10.051Z,4.17
2018-03-07T03:32:14.386Z,4.17
2018-03-07T03:32:18.505Z,4.16
2018-03-07T03:32:22.840Z,4.17
2018-03-07T03:32:26.849Z,4.17
2018-03-07T03:32:31.075Z,4.17
2018-03-07T03:32:35.304Z,4.16
2018-03-07T03:32:39.650Z,4.17
2018-03-07T03:32:43.880Z,4.18
2018-03-07T03:32:48.218Z,4.18
2018-03-07T03:32:52.224Z,4.17
2018-03-07T03:32:56.448Z,4.17
2018-03-07T03:33:00.673Z,4.17
2018-03-07T03:33:04.807Z,4.17
2018-03-07T03:33:09.038Z,4.17
2018-03-07T03:33:13.271Z,4.17
2018-03-07T03:33:17.277Z,4.17
2018-03-07T03:33:21.507Z,4.19
2018-03-07T03:33:25.836Z,4.18
2018-03-07T03:33:30.072Z,4.18
2018-03-07T03:33:34.406Z,4.18
2018-03-07T03:33:38.516Z,4.18
2018-03-07T03:33:42.740Z,4.18
2018-03-07T03:33:46.855Z,4.18
2018-03-07T03:33:51.186Z,4.19
2018-03-07T03:33:55.407Z,4.19
2018-03-07T03:33:59.636Z,4.19
2018-03-07T03:34:03.775Z,4.18
2018-03-07T03:34:07.783Z,4.19
2018-03-07T03:34:11.794Z,4.18
2018-03-07T03:34:16.014Z,4.19
2018-03-07T03:34:20.340Z,4.19
2018-03-07T03:34:24.455Z,4.2
2018-03-07T03:34:28.462Z,4.19
2018-03-07T03:34:32.475Z,4.2
2018-03-07T03:34:36.476Z,4.2
2018-03-07T03:34:40.598Z,4.2
2018-03-07T03:34:44.822Z,4.19
2018-03-07T03:34:49.048Z,4.19
2018-03-07T03:34:53.062Z,4.2
2018-03-07T03:34:57.076Z,4.2
2018-03-07T03:35:01.023Z,4.21
2018-03-07T03:35:05.139Z,4.21
2018-03-07T03:35:09.143Z,4.2
2018-03-07T03:35:13.373Z,4.21
2018-03-07T03:35:17.383Z,4.21
2018-03-07T03:35:21.494Z,4.2
2018-03-07T03:35:25.831Z,4.21
2018-03-07T03:35:29.846Z,4.21
2018-03-07T03:35:33.958Z,4.21
2018-03-07T03:35:37.879Z,4.21
2018-03-07T03:35:41.988Z,4.21
2018-03-07T03:35:46.316Z,4.21
2018-03-07T03:35:50.541Z,4.21
2018-03-07T03:35:54.765Z,4.22
2018-03-07T03:35:58.990Z,4.22
2018-03-07T03:36:03.223Z,4.22
2018-03-07T03:36:07.341Z,4.21
2018-03-07T03:36:11.461Z,4.22
2018-03-07T03:36:15.575Z,4.22
2018-03-07T03:36:19.805Z,4.21
2018-03-07T03:36:24.021Z,4.22
2018-03-07T03:36:28.345Z,4.21
2018-03-07T03:36:32.359Z,4.22
2018-03-07T03:36:36.586Z,4.23
2018-03-07T03:36:40.712Z,4.23
2018-03-07T03:36:44.820Z,4.22
2018-03-07T03:36:49.038Z,4.22
2018-03-07T03:36:53.160Z,4.23
2018-03-07T03:36:57.384Z,4.23
2018-03-07T03:37:01.725Z,4.23
2018-03-07T03:37:05.846Z,4.23
2018-03-07T03:37:09.860Z,4.23
2018-03-07T03:37:13.976Z,4.24
2018-03-07T03:37:18.227Z,4.24
2018-03-07T03:37:22.241Z,4.24
2018-03-07T03:37:26.470Z,4.24
2018-03-07T03:37:30.586Z,4.24
2018-03-07T03:37:34.709Z,4.24
2018-03-07T03:37:38.930Z,4.23
2018-03-07T03:37:43.146Z,4.24
2018-03-07T03:37:47.051Z,4.25
2018-03-07T03:37:51.275Z,4.24
2018-03-07T03:37:55.504Z,4.24
2018-03-07T03:37:59.512Z,4.25
2018-03-07T03:38:04.200Z,4.24
2018-03-07T03:38:08.234Z,4.25
2018-03-07T03:38:12.461Z,4.25
2018-03-07T03:38:16.465Z,4.25
2018-03-07T03:38:20.474Z,4.25
2018-03-07T03:38:24.590Z,4.25
2018-03-07T03:38:28.602Z,4.25
2018-03-07T03:38:32.823Z,4.25
2018-03-07T03:38:36.939Z,4.26
2018-03-07T03:38:41.160Z,4.26
2018-03-07T03:38:45.383Z,4.26
2018-03-07T03:38:49.404Z,4.26
2018-03-07T03:38:53.520Z,4.25
2018-03-07T03:38:57.526Z,4.26
2018-03-07T03:39:01.538Z,4.26
2018-03-07T03:39:05.815Z,4.26
2018-03-07T03:39:09.948Z,4.25
2018-03-07T03:39:14.069Z,4.26
2018-03-07T03:39:18.403Z,4.26
2018-03-07T03:39:22.626Z,4.27
2018-03-07T03:39:26.640Z,4.26
2018-03-07T03:39:30.768Z,4.26
2018-03-07T03:39:34.990Z,4.26
2018-03-07T03:39:39.104Z,4.26
2018-03-07T03:39:43.331Z,4.25
2018-03-07T03:39:47.554Z,4.26
2018-03-07T03:39:51.775Z,4.27
2018-03-07T03:39:55.891Z,4.27
2018-03-07T03:40:00.078Z,4.26
2018-03-07T03:40:04.474Z,4.27
2018-03-07T03:40:08.585Z,4.27
2018-03-07T03:40:12.700Z,4.27
2018-03-07T03:40:16.922Z,4.27
2018-03-07T03:40:21.034Z,4.27
2018-03-07T03:40:25.050Z,4.28
2018-03-07T03:40:29.286Z,4.27
2018-03-07T03:40:33.411Z,4.28
2018-03-07T03:40:37.631Z,4.27
2018-03-07T03:40:41.641Z,4.28
2018-03-07T03:40:45.858Z,4.28
2018-03-07T03:40:50.000Z,4.27
2018-03-07T03:40:54.010Z,4.28
2018-03-07T03:40:58.123Z,4.27
2018-03-07T03:41:02.443Z,4.28
2018-03-07T03:41:06.351Z,4.29
2018-03-07T03:41:10.356Z,4.29
2018-03-07T03:41:14.476Z,4.29
2018-03-07T03:41:18.594Z,4.28
2018-03-07T03:41:22.714Z,4.28
2018-03-07T03:41:26.942Z,4.29
2018-03-07T03:41:30.950Z,4.29
2018-03-07T03:41:35.175Z,4.28
2018-03-07T03:41:39.178Z,4.28
2018-03-07T03:41:43.191Z,4.29
2018-03-07T03:41:47.307Z,4.29
2018-03-07T03:41:51.557Z,4.29
2018-03-07T03:41:55.675Z,4.3
2018-03-07T03:41:59.793Z,4.29
2018-03-07T03:42:03.592Z,4.29
2018-03-07T03:42:07.501Z,4.29
2018-03-07T03:42:11.838Z,4.29
2018-03-07T03:42:15.968Z,4.29
2018-03-07T03:42:20.312Z,4.29
2018-03-07T03:42:24.212Z,4.29
2018-03-07T03:42:28.328Z,4.3
2018-03-07T03:42:32.656Z,4.29
2018-03-07T03:42:36.878Z,4.3
2018-03-07T03:42:41.096Z,4.3
2018-03-07T03:42:45.321Z,4.31
2018-03-07T03:42:49.543Z,4.3
2018-03-07T03:42:53.452Z,4.3
2018-03-07T03:42:57.679Z,4.29
2018-03-07T03:43:01.796Z,4.3
2018-03-07T03:43:06.028Z,4.3
2018-03-07T03:43:10.036Z,4.31
2018-03-07T03:43:14.259Z,4.3
2018-03-07T03:43:18.593Z,4.3
2018-03-07T03:43:22.714Z,4.3
2018-03-07T03:43:26.755Z,4.3
2018-03-07T03:43:30.982Z,4.31
2018-03-07T03:43:34.772Z,4.31
2018-03-07T03:43:38.996Z,4.32
2018-03-07T03:43:43.207Z,4.31
2018-03-07T03:43:47.322Z,4.3
2018-03-07T03:43:51.440Z,4.32
2018-03-07T03:43:55.664Z,4.31
2018-03-07T03:43:59.562Z,4.32
2018-03-07T03:44:03.873Z,4.3
2018-03-07T03:44:07.995Z,4.32
2018-03-07T03:44:12.323Z,4.32
2018-03-07T03:44:16.445Z,4.32
2018-03-07T03:44:20.343Z,4.32
2018-03-07T03:44:24.349Z,4.32
2018-03-07T03:44:28.038Z,4.32
2018-03-07T03:44:32.266Z,4.32
2018-03-07T03:44:36.381Z,4.31
2018-03-07T03:44:40.501Z,4.32
2018-03-07T03:44:44.622Z,4.31
2018-03-07T03:44:48.839Z,4.32
2018-03-07T03:44:52.957Z,4.33
2018-03-07T03:44:57.070Z,4.32
2018-03-07T03:45:01.205Z,4.32
2018-03-07T03:45:05.217Z,4.32
2018-03-07T03:45:09.447Z,4.32
2018-03-07T03:45:13.559Z,4.33
2018-03-07T03:45:17.800Z,4.32
2018-03-07T03:45:21.702Z,4.33
2018-03-07T03:45:26.117Z,4.32
2018-03-07T03:45:30.453Z,4.33
2018-03-07T03:45:34.360Z,4.33
2018-03-07T03:45:38.367Z,4.33
2018-03-07T03:45:42.532Z,4.32
2018-03-07T03:45:46.607Z,4.32
2018-03-07T03:45:50.755Z,4.33
2018-03-07T03:45:54.646Z,4.32
2018-03-07T03:45:58.541Z,4.33
2018-03-07T03:46:02.753Z,4.33
2018-03-07T03:46:06.761Z,4.33
2018-03-07T03:46:10.882Z,4.33
2018-03-07T03:46:15.111Z,4.33
2018-03-07T03:46:19.240Z,4.33
2018-03-07T03:46:23.140Z,4.33
2018-03-07T03:46:27.039Z,4.33
2018-03-07T03:46:31.159Z,4.32
2018-03-07T03:46:35.423Z,4.32
2018-03-07T03:46:39.645Z,4.32
2018-03-07T03:46:43.866Z,4.33
2018-03-07T03:46:47.985Z,4.33
2018-03-07T03:46:52.112Z,4.34
2018-03-07T03:46:56.226Z,4.33
2018-03-07T03:47:00.345Z,4.33
2018-03-07T03:47:04.502Z,4.33
2018-03-07T03:47:08.511Z,4.34
2018-03-07T03:47:12.844Z,4.34
2018-03-07T03:47:16.748Z,4.34
2018-03-07T03:47:20.976Z,4.34
2018-03-07T03:47:24.985Z,4.33
2018-03-07T03:47:29.206Z,4.34
2018-03-07T03:47:33.220Z,4.33
2018-03-07T03:47:37.447Z,4.34
2018-03-07T03:47:41.563Z,4.34
2018-03-07T03:47:45.584Z,4.33